• Join FlightAware (Why Join?)
  • Login
  • US Flag 
12:00PM EDT


 

Airport Tracker/Info


-or-


 

Live Flight TrackerFlight Track Log ✈ N618JB ✈ 16-Apr-2013 ✈ KLGB - KSFO

Flight Track Log - Related Links

Times and Time Zones

All times are in EDT time to prevent confusion due to time zone crossing. See the N618JB flight status page for this flight to view local times or setup timezone preferences in your user account.

Time Position Orientation Groundspeed Altitude Reporting Facility
EDT Latitude Longitude Course Direction KTS MPH feet Rate Location/Type
10:04AM 33.8431 -118.1828 289° West 155 178 1,800  Level Los Angeles Center
10:05AM 33.8458 -118.2544 273° West 228 262 3,800 2,040 Climbing Los Angeles Center
10:06AM 33.8347 -118.3300 260° West 232 267 6,000 1,380 Climbing Los Angeles Center
10:07AM 33.9381 -118.5476 292° West  Level FlightAware Approximate
10:07AM 33.8186 -118.4286 259° West 257 296 6,700  Level Los Angeles Center
10:08AM 33.9802 -118.6406 292° West  Level FlightAware Approximate
10:08AM 33.8047 -118.5139 259° West 261 300 9,100  Level Los Angeles Center
10:09AM 34.0138 -118.7412 292° West  Level FlightAware Approximate
10:09AM 33.7892 -118.5969 257° West 261 300 11,600  Level Los Angeles Center
10:10AM 34.0485 -118.8532 289° West  Level FlightAware Approximate
10:10AM 33.7725 -118.7006 259° West 316 364 13,800  Level Los Angeles Center
10:11AM 33.7556 -118.8058 259° West 323 372 16,500 2,460 Climbing Los Angeles Center
10:12AM 33.7928 -118.9056 294° West 340 391 18,900 2,400 Climbing Los Angeles Center
10:13AM 33.8764 -119.0042 316° Northwest 351 404 21,500 2,160 Climbing Los Angeles Center
10:14AM 33.9475 -119.0908 315° West 362 417 23,400 1,740 Climbing Los Angeles Center
10:15AM 34.0197 -119.1792 315° West 366 421 25,100 1,560 Climbing Los Angeles Center
10:17AM 34.0942 -119.2669 316° Northwest 373 429 26,700 1,440 Climbing Los Angeles Center
10:18AM 34.1692 -119.3592 315° West 382 440 28,100 1,320 Climbing Los Angeles Center
10:19AM 34.2469 -119.4503 316° Northwest 387 445 29,500 1,320 Climbing Los Angeles Center
10:20AM 34.3236 -119.5461 314° West 394 453 30,900 1,200 Climbing Los Angeles Center
10:21AM 34.4014 -119.6394 315° West 395 455 32,000 1,500 Climbing Los Angeles Center
10:22AM 34.4931 -119.7517 315° West 393 452 34,000 1,320 Climbing Los Angeles Center
10:23AM 34.5706 -119.8408 317° Northwest 386 444 35,100 840 Climbing Los Angeles Center
10:24AM 34.6656 -119.9425 319° Northwest 390 449 36,000 420 Climbing Los Angeles Center
10:25AM 34.7453 -120.0283 319° Northwest 385 443 36,000  Level Los Angeles Center
10:26AM 34.8283 -120.1206 318° Northwest 387 445 36,000  Level Los Angeles Center
10:27AM 34.9089 -120.2081 318° Northwest 390 449 36,000  Level Los Angeles Center
10:28AM 34.9889 -120.2961 318° Northwest 390 449 36,000  Level Los Angeles Center
10:29AM 35.0844 -120.4025 318° Northwest 390 449 36,000  Level Los Angeles Center
10:30AM 35.1631 -120.4883 318° Northwest 386 444 36,000  Level Los Angeles Center
10:31AM 35.2417 -120.5758 318° Northwest 384 442 36,000  Level Los Angeles Center
10:32AM 35.3203 -120.6633 318° Northwest 383 441 36,000  Level Los Angeles Center
10:33AM 35.3972 -120.7506 317° Northwest 380 437 36,000  Level Los Angeles Center
10:34AM 35.4325 -120.7900 318° Northwest 376 433 36,000  Level Oakland Center
10:35AM 35.5119 -120.8731 320° Northwest 373 429 36,000  Level Oakland Center
10:36AM 35.5978 -120.9461 325° Northwest 374 430 36,000 -60 Level Oakland Center
10:37AM 35.6817 -121.0194 325° Northwest 371 427 35,900  Descending Oakland Center
10:38AM 35.7669 -121.0942 325° Northwest 373 429 36,000  Climbing Oakland Center
10:39AM 35.8531 -121.1694 325° Northwest 378 435 36,000  Level Oakland Center
10:40AM 35.9392 -121.2453 325° Northwest 379 436 36,000 -600 Level Oakland Center
10:41AM 36.0244 -121.3197 325° Northwest 376 433 34,800 -1,740 Descending Oakland Center
10:42AM 36.1228 -121.4072 324° Northwest 362 417 32,500 -2,160 Descending Oakland Center
10:43AM 36.2036 -121.4817 323° Northwest 362 417 30,500 -1,920 Descending Oakland Center
10:44AM 36.2836 -121.5536 324° Northwest 357 411 28,700 -1,800 Descending Oakland Center
10:45AM 36.3603 -121.6172 326° Northwest 335 386 26,900 -1,800 Descending Oakland Center
10:46AM 36.4314 -121.6842 323° Northwest 324 373 25,100 -1,860 Descending Oakland Center
10:47AM 36.5167 -121.7500 328° Northwest 317 365 23,100 -1,920 Descending Northern Cal TRACON
10:48AM 36.5667 -121.8167 313° West 318 366 21,400 -1,920 Descending Northern Cal TRACON
10:49AM 36.6333 -121.8667 329° Northwest 334 384 19,700 -1,800 Descending Northern Cal TRACON
10:50AM 36.7000 -121.9333 321° Northwest 297 342 18,000 -1,620 Descending Northern Cal TRACON
10:51AM 36.7667 -121.9667 338° Northwest 278 320 16,500 -1,680 Descending Northern Cal TRACON
10:52AM 36.8500 -122.0000 342° North 288 331 14,700 -1,800 Descending Northern Cal TRACON
10:53AM 36.9333 -122.0167 351° North 289 333 13,000 -1,620 Descending Northern Cal TRACON
10:53AM 36.9369 -122.0147 23° Northeast 289 333 12,700 -1,560 Descending Oakland Center
10:54AM 37.0158 -122.0344 349° North 288 331 11,000 -1,320 Descending Oakland Center
10:55AM 37.0928 -122.0569 347° North 283 326 10,000 -900 Descending Oakland Center
10:56AM 37.1628 -122.0717 350° North 257 296 9,200 -1,020 Descending Oakland Center
10:57AM 37.2208 -122.1136 330° Northwest 248 285 8,000 -1,140 Descending Oakland Center
10:58AM 37.3017 -122.1264 353° North 242 278 7,000 -1,080 Descending Oakland Center
10:59AM 37.3700 -122.1367 353° North 246 283 5,900 -840 Descending Oakland Center
11:00AM 37.4344 -122.1483 352° North 237 273 5,400 -600 Descending Oakland Center
11:01AM 37.4883 -122.1578 352° North 205 236 4,800 -840 Descending Oakland Center
11:02AM 37.5308 -122.1761 341° North 173 199 3,800 -1,140 Descending Oakland Center
11:03AM 37.5525 -122.2236 300° West 157 181 2,500 -1,140 Descending Oakland Center
11:04AM 37.5708 -122.2642 300° West 145 167 1,600 -720 Descending Oakland Center
11:05AM 37.5881 -122.3058 298° West 138 159 1,100 -660 Descending Oakland Center
11:06AM 37.6044 -122.3453 298° West 133 153 300 -780 Descending Oakland Center
11:08AM 37.6167 -122.3667 322° Northwest  Level FlightAware Approximate
11:15AM 37.6191 -122.3752 322° Northwest  Level Estimated